createdAt,value
2019-06-26T00:00:46.414Z,11.63
2019-06-26T00:03:15.859Z,10.80
2019-06-26T00:05:44.700Z,12.03
2019-06-26T00:08:32.963Z,11.03
2019-06-26T00:11:02.107Z,11.97
2019-06-26T00:13:31.540Z,12.00
2019-06-26T00:16:00.816Z,11.20
2019-06-26T00:18:29.876Z,11.23
2019-06-26T00:20:58.924Z,11.60
2019-06-26T00:23:28.371Z,11.20
2019-06-26T00:25:57.326Z,12.63
2019-06-26T00:28:26.655Z,12.17
2019-06-26T00:30:56.043Z,11.80
2019-06-26T00:33:24.817Z,12.40
2019-06-26T00:35:53.610Z,12.03
2019-06-26T00:38:22.542Z,12.30
2019-06-26T00:40:51.415Z,12.47
2019-06-26T00:43:20.492Z,13.23
2019-06-26T00:45:49.275Z,12.20
2019-06-26T00:48:18.052Z,13.30
2019-06-26T00:50:47.935Z,12.93
2019-06-26T00:53:16.754Z,13.30
2019-06-26T00:55:45.762Z,13.50
2019-06-26T00:58:33.808Z,12.87
2019-06-26T01:01:02.796Z,13.80
2019-06-26T01:03:31.739Z,13.40
2019-06-26T01:06:01.488Z,12.70
2019-06-26T01:08:31.002Z,12.70
2019-06-26T01:11:00.607Z,13.67
2019-06-26T01:13:29.894Z,14.30
2019-06-26T01:15:58.707Z,13.77
2019-06-26T01:18:46.851Z,12.63
2019-06-26T01:21:35.299Z,13.50
2019-06-26T01:24:04.612Z,12.87
2019-06-26T01:26:53.199Z,13.97
2019-06-26T01:29:22.395Z,14.20
2019-06-26T01:31:51.184Z,14.80
2019-06-26T01:34:20.678Z,14.93
2019-06-26T01:37:08.733Z,13.80
2019-06-26T01:39:37.974Z,14.43
2019-06-26T01:42:26.133Z,18.43
2019-06-26T01:44:55.440Z,15.17
2019-06-26T01:47:24.949Z,13.70
2019-06-26T01:49:53.723Z,15.90
2019-06-26T01:52:22.948Z,15.00
2019-06-26T01:54:52.144Z,14.67
2019-06-26T01:57:40.523Z,14.97
2019-06-26T02:00:28.893Z,17.00
2019-06-26T02:03:17.186Z,14.03
2019-06-26T02:05:58.320Z,16.27
2019-06-26T02:08:39.334Z,14.43
2019-06-26T02:11:20.023Z,14.13
2019-06-26T02:17:19.681Z,15.57
2019-06-26T02:20:00.896Z,15.97
2019-06-26T02:22:29.717Z,15.33
2019-06-26T02:24:59.124Z,15.43
2019-06-26T02:27:47.440Z,14.60
2019-06-26T02:30:36.021Z,15.63
2019-06-26T02:33:04.784Z,14.90
2019-06-26T02:35:56.174Z,15.57
2019-06-26T02:38:25.458Z,15.53
2019-06-26T02:40:54.613Z,13.80
2019-06-26T02:43:23.972Z,15.43
2019-06-26T02:45:53.299Z,14.50
2019-06-26T02:48:22.872Z,14.43
2019-06-26T02:50:51.600Z,14.80
2019-06-26T02:53:20.420Z,15.93
2019-06-26T02:55:49.440Z,15.10
2019-06-26T02:58:18.237Z,15.40
2019-06-26T03:00:47.172Z,15.00
2019-06-26T03:03:16.145Z,14.73
2019-06-26T03:05:45.140Z,15.20
2019-06-26T03:08:14.540Z,15.50
2019-06-26T03:10:43.876Z,14.53
2019-06-26T03:13:12.878Z,16.90
2019-06-26T03:15:42.203Z,16.33
2019-06-26T03:18:10.935Z,16.57
2019-06-26T03:20:59.195Z,16.40
2019-06-26T03:23:47.520Z,17.03
2019-06-26T03:26:35.543Z,17.80
2019-06-26T03:29:23.543Z,16.67
2019-06-26T03:32:11.585Z,17.20
2019-06-26T03:34:59.672Z,16.93
2019-06-26T03:37:48.031Z,16.30
2019-06-26T03:40:36.383Z,15.77
2019-06-26T03:43:05.396Z,17.10
2019-06-26T03:45:53.677Z,15.83
2019-06-26T03:48:42.289Z,15.43
2019-06-26T03:51:30.366Z,14.73
2019-06-26T03:53:59.694Z,14.30
2019-06-26T03:56:29.200Z,19.07
2019-06-26T03:58:58.438Z,16.30
2019-06-26T04:01:49.613Z,15.10
2019-06-26T04:04:37.649Z,13.80
2019-06-26T04:07:06.409Z,15.40
2019-06-26T04:09:35.535Z,16.27
2019-06-26T04:12:23.687Z,16.00
2019-06-26T04:14:52.807Z,14.43
2019-06-26T04:17:40.872Z,15.33
2019-06-26T04:20:29.230Z,14.70
2019-06-26T04:22:58.266Z,15.80
2019-06-26T04:25:47.253Z,14.97
2019-06-26T04:28:35.859Z,16.10
2019-06-26T04:31:26.264Z,19.40
2019-06-26T04:33:55.053Z,17.80
2019-06-26T04:36:43.332Z,18.10
2019-06-26T04:39:31.440Z,15.50
2019-06-26T04:42:00.447Z,17.27
2019-06-26T04:44:29.552Z,21.70
2019-06-26T04:47:17.872Z,16.03
2019-06-26T04:52:25.688Z,19.07
2019-06-26T04:54:54.746Z,19.20
2019-06-26T04:57:23.476Z,21.30
2019-06-26T04:59:52.791Z,20.37
2019-06-26T05:02:40.848Z,18.10
2019-06-26T05:05:35.456Z,19.97
2019-06-26T05:08:05.775Z,23.10
2019-06-26T05:10:47.280Z,24.60
2019-06-26T05:13:28.668Z,21.90
2019-06-26T05:16:14.919Z,23.17
2019-06-26T05:18:40.537Z,23.07
2019-06-26T05:21:28.658Z,26.80
2019-06-26T05:24:16.783Z,24.93
2019-06-26T05:26:46.054Z,21.40
2019-06-26T05:29:15.128Z,23.30
2019-06-26T05:32:03.432Z,24.07
2019-06-26T05:34:51.820Z,25.03
2019-06-26T05:37:39.859Z,21.03
2019-06-26T05:40:09.317Z,22.20
2019-06-26T05:42:58.219Z,22.30
2019-06-26T05:45:27.271Z,21.07
2019-06-26T05:48:15.620Z,24.27
2019-06-26T05:50:44.754Z,27.10
2019-06-26T05:53:34.294Z,27.00
2019-06-26T05:56:03.500Z,35.70
2019-06-26T05:58:32.218Z,26.47
2019-06-26T06:01:01.572Z,27.00
2019-06-26T06:03:30.719Z,24.47
2019-06-26T06:05:59.549Z,21.00
2019-06-26T06:08:48.003Z,22.20
2019-06-26T06:11:16.951Z,18.83
2019-06-26T06:13:46.295Z,20.43
2019-06-26T06:16:15.331Z,18.20
2019-06-26T06:19:03.707Z,21.67
2019-06-26T06:21:32.540Z,18.47
2019-06-26T06:24:01.406Z,19.37
2019-06-26T06:26:33.253Z,20.43
2019-06-26T06:29:02.195Z,21.97
2019-06-26T06:31:50.603Z,19.37
2019-06-26T06:34:22.460Z,19.73
2019-06-26T06:36:51.234Z,20.20
2019-06-26T06:39:39.347Z,15.67
2019-06-26T06:42:08.301Z,16.80
2019-06-26T06:44:37.777Z,15.17
2019-06-26T06:47:08.865Z,13.40
2019-06-26T06:49:37.100Z,11.80
2019-06-26T06:52:06.126Z,11.00
2019-06-26T06:54:35.364Z,11.80
2019-06-26T06:57:04.339Z,10.17
2019-06-26T06:59:33.759Z,11.47
2019-06-26T07:02:02.807Z,10.70
2019-06-26T07:04:31.665Z,10.67
2019-06-26T07:07:12.469Z,11.30
2019-06-26T07:09:41.712Z,9.97
2019-06-26T07:12:30.009Z,9.20
2019-06-26T07:15:01.465Z,10.10
2019-06-26T07:17:49.790Z,9.60
2019-06-26T07:20:22.879Z,10.20
2019-06-26T07:22:51.607Z,10.53
2019-06-26T07:25:20.383Z,10.37
2019-06-26T07:27:49.136Z,8.57
2019-06-26T07:30:17.908Z,8.50
2019-06-26T07:32:47.391Z,6.97
2019-06-26T07:35:16.202Z,7.93
2019-06-26T07:37:45.172Z,6.40
2019-06-26T07:40:14.150Z,5.77
2019-06-26T07:43:02.786Z,4.70
2019-06-26T07:45:31.522Z,4.73
2019-06-26T07:48:19.609Z,4.67
2019-06-26T07:51:07.888Z,4.10
2019-06-26T07:53:56.009Z,4.23
2019-06-26T07:56:24.818Z,4.03
2019-06-26T07:59:15.286Z,4.13
2019-06-26T08:02:03.264Z,4.07
2019-06-26T08:04:32.275Z,3.63
2019-06-26T08:07:01.366Z,4.00
2019-06-26T08:09:30.722Z,3.87
2019-06-26T08:11:59.826Z,3.53
2019-06-26T08:14:48.079Z,3.40
2019-06-26T08:17:17.689Z,3.70
2019-06-26T08:20:06.091Z,3.73
2019-06-26T08:22:54.322Z,3.50
2019-06-26T08:25:42.433Z,3.63
2019-06-26T08:28:11.350Z,3.90
2019-06-26T08:30:59.712Z,3.70
2019-06-26T08:33:48.059Z,3.40
2019-06-26T08:36:17.365Z,3.20
2019-06-26T08:39:06.281Z,3.20
2019-06-26T08:41:35.514Z,3.00
2019-06-26T08:44:04.593Z,2.63
2019-06-26T08:46:52.628Z,2.60
2019-06-26T08:49:25.906Z,3.20
2019-06-26T08:52:12.283Z,3.07
2019-06-26T08:55:00.919Z,2.87
2019-06-26T08:57:49.455Z,3.10
2019-06-26T09:00:18.571Z,2.50
2019-06-26T09:02:47.563Z,2.90
2019-06-26T09:05:16.763Z,2.63
2019-06-26T09:07:45.733Z,2.50
2019-06-26T09:10:14.416Z,2.90
2019-06-26T09:12:43.135Z,2.57
2019-06-26T09:15:12.103Z,2.50
2019-06-26T09:17:41.106Z,2.20
2019-06-26T09:20:09.824Z,2.73
2019-06-26T09:22:57.822Z,2.60
2019-06-26T09:25:27.067Z,3.00
2019-06-26T09:27:56.068Z,2.63
2019-06-26T09:30:25.235Z,2.30
2019-06-26T09:32:54.203Z,2.50
2019-06-26T09:35:42.731Z,2.30
2019-06-26T09:38:30.391Z,2.40
2019-06-26T09:41:17.962Z,2.47
2019-06-26T09:44:05.935Z,2.30
2019-06-26T09:46:53.588Z,2.03
2019-06-26T09:49:22.482Z,2.03
2019-06-26T09:51:51.844Z,2.20
2019-06-26T09:54:20.601Z,2.10
2019-06-26T09:56:49.894Z,1.93
2019-06-26T09:59:37.907Z,2.13
2019-06-26T10:02:25.945Z,2.00
2019-06-26T10:04:54.753Z,2.03
2019-06-26T10:07:35.655Z,2.13
2019-06-26T10:10:04.945Z,2.10
2019-06-26T10:12:52.935Z,2.13
2019-06-26T10:15:41.216Z,2.30
2019-06-26T10:18:10.497Z,1.70
2019-06-26T10:20:59.320Z,2.00
2019-06-26T10:23:28.272Z,1.90
2019-06-26T10:25:57.485Z,1.83
2019-06-26T10:28:26.863Z,1.87
2019-06-26T10:31:18.349Z,1.90
2019-06-26T10:33:46.027Z,1.90
2019-06-26T10:36:15.311Z,1.80
2019-06-26T10:39:03.728Z,2.00
2019-06-26T10:41:54.856Z,1.80
2019-06-26T10:44:22.261Z,1.63
2019-06-26T10:47:10.709Z,1.97
2019-06-26T10:49:39.595Z,1.80
2019-06-26T10:52:08.649Z,1.90
2019-06-26T10:54:37.398Z,1.40
2019-06-26T10:57:25.941Z,1.87
2019-06-26T11:00:14.290Z,1.90
2019-06-26T11:03:02.591Z,1.87
2019-06-26T11:05:31.387Z,1.73
2019-06-26T11:08:12.695Z,1.50
2019-06-26T11:10:41.733Z,1.70
2019-06-26T11:13:10.844Z,1.70
2019-06-26T11:15:40.431Z,1.57
2019-06-26T11:18:28.472Z,1.60
2019-06-26T11:21:16.570Z,1.87
2019-06-26T11:24:04.495Z,1.67
2019-06-26T11:26:33.411Z,1.57
2019-06-26T11:29:02.910Z,1.70
2019-06-26T11:31:31.968Z,1.70
2019-06-26T11:34:20.032Z,1.53
2019-06-26T11:37:02.773Z,1.60
2019-06-26T11:39:40.214Z,1.70
2019-06-26T11:42:09.082Z,1.50
2019-06-26T11:44:38.085Z,1.60
2019-06-26T11:47:26.487Z,1.80
2019-06-26T11:50:14.506Z,1.60
2019-06-26T11:53:02.659Z,1.20
2019-06-26T11:55:31.378Z,1.50
2019-06-26T11:58:00.116Z,1.50
2019-06-26T12:00:48.324Z,1.40
2019-06-26T12:03:36.681Z,1.70
2019-06-26T12:06:24.831Z,1.70
2019-06-26T12:08:53.637Z,1.50
2019-06-26T12:11:41.731Z,1.50
2019-06-26T12:14:10.577Z,1.70
2019-06-26T12:16:39.318Z,1.60
2019-06-26T12:19:27.511Z,1.80
2019-06-26T12:21:56.470Z,1.50
2019-06-26T12:24:44.765Z,1.70
2019-06-26T12:27:14.169Z,1.50
2019-06-26T12:29:42.962Z,1.50
2019-06-26T12:32:30.962Z,1.30
2019-06-26T12:34:59.687Z,1.50
2019-06-26T12:37:48.062Z,1.70
2019-06-26T12:40:17.016Z,1.40
2019-06-26T12:42:46.033Z,1.47
2019-06-26T12:45:34.055Z,1.50
2019-06-26T12:48:03.097Z,1.50
2019-06-26T12:50:36.011Z,1.40
2019-06-26T12:53:02.675Z,1.70
2019-06-26T12:55:33.053Z,1.40
2019-06-26T12:58:12.587Z,1.50
2019-06-26T13:00:32.755Z,1.83
2019-06-26T13:03:02.128Z,1.70
2019-06-26T13:05:50.349Z,1.60
2019-06-26T13:08:31.001Z,1.33
2019-06-26T13:10:59.855Z,1.43
2019-06-26T13:14:01.508Z,1.30
2019-06-26T13:16:18.840Z,1.53
2019-06-26T13:18:48.111Z,1.80
2019-06-26T13:21:36.113Z,1.50
2019-06-26T13:24:24.434Z,1.77
2019-06-26T13:27:12.771Z,1.67
2019-06-26T13:30:01.140Z,1.37
2019-06-26T13:32:49.231Z,1.50
2019-06-26T13:35:37.295Z,1.70
2019-06-26T13:38:27.182Z,1.80
2019-06-26T13:40:55.914Z,1.63
2019-06-26T13:43:24.742Z,1.80
2019-06-26T13:46:12.819Z,1.83
2019-06-26T13:48:41.489Z,1.50
2019-06-26T13:51:10.551Z,1.57
2019-06-26T13:53:58.548Z,1.67
2019-06-26T13:56:46.558Z,1.70
2019-06-26T13:59:15.245Z,1.87
2019-06-26T14:01:43.937Z,1.50
2019-06-26T14:04:12.697Z,1.57
2019-06-26T14:07:00.995Z,1.70
2019-06-26T14:09:29.727Z,1.90
2019-06-26T14:12:19.235Z,1.80
2019-06-26T14:14:57.529Z,1.77
2019-06-26T14:17:38.082Z,2.00
2019-06-26T14:20:26.228Z,1.73
2019-06-26T14:23:14.287Z,1.90
2019-06-26T14:25:43.864Z,1.80
2019-06-26T14:28:31.841Z,1.97
2019-06-26T14:31:00.511Z,2.10
2019-06-26T14:33:51.223Z,1.93
2019-06-26T14:36:23.151Z,2.20
2019-06-26T14:38:50.595Z,1.90
2019-06-26T14:41:19.875Z,1.90
2019-06-26T14:44:08.195Z,2.10
2019-06-26T14:46:38.078Z,2.23
2019-06-26T14:49:06.907Z,2.03
2019-06-26T14:51:43.939Z,2.50
2019-06-26T14:54:06.864Z,2.10
2019-06-26T14:56:54.850Z,2.03
2019-06-26T14:59:25.994Z,2.20
2019-06-26T15:01:54.718Z,2.10
2019-06-26T15:04:23.409Z,2.10
2019-06-26T15:06:52.522Z,2.30
2019-06-26T15:09:21.823Z,2.10
2019-06-26T15:12:10.478Z,2.07
2019-06-26T15:14:58.541Z,2.23
2019-06-26T15:17:47.107Z,2.30
2019-06-26T15:20:17.121Z,2.60
2019-06-26T15:22:46.343Z,2.50
2019-06-26T15:25:34.584Z,2.70
2019-06-26T15:28:03.630Z,2.47
2019-06-26T15:30:32.984Z,2.90
2019-06-26T15:33:23.223Z,2.50
2019-06-26T15:35:53.898Z,2.60
2019-06-26T15:38:22.695Z,2.70
2019-06-26T15:41:11.068Z,2.40
2019-06-26T15:43:40.163Z,2.40
2019-06-26T15:46:28.479Z,2.67
2019-06-26T15:48:58.157Z,2.70
2019-06-26T15:51:27.079Z,2.80
2019-06-26T15:53:59.779Z,3.17
2019-06-26T15:56:27.846Z,2.87
2019-06-26T15:58:57.617Z,2.40
2019-06-26T16:01:45.710Z,2.80
2019-06-26T16:04:14.723Z,2.93
2019-06-26T16:09:17.827Z,3.00
2019-06-26T16:12:05.852Z,3.10
2019-06-26T16:14:34.735Z,2.83
2019-06-26T16:19:42.607Z,2.80
2019-06-26T16:22:32.637Z,3.00
2019-06-26T16:25:01.070Z,2.93
2019-06-26T16:27:29.807Z,2.90
2019-06-26T16:29:58.540Z,2.90
2019-06-26T16:32:27.410Z,3.10
2019-06-26T16:34:56.152Z,3.57
2019-06-26T16:37:24.907Z,2.80
2019-06-26T16:39:53.887Z,3.40
2019-06-26T16:42:23.015Z,2.90
2019-06-26T16:44:51.718Z,3.17
2019-06-26T16:47:39.865Z,2.70
2019-06-26T16:50:08.544Z,3.07
2019-06-26T16:52:48.625Z,3.27
2019-06-26T16:55:07.728Z,3.13
2019-06-26T16:57:36.383Z,2.90
2019-06-26T17:00:35.506Z,3.20
2019-06-26T17:03:04.656Z,2.90
2019-06-26T17:05:33.918Z,3.00
2019-06-26T17:08:03.021Z,3.30
2019-06-26T17:10:31.723Z,2.87
2019-06-26T17:13:19.876Z,3.23
2019-06-26T17:16:07.937Z,3.10
2019-06-26T17:18:36.820Z,3.40
2019-06-26T17:21:25.044Z,3.40
2019-06-26T17:24:13.089Z,2.97
2019-06-26T17:26:42.327Z,3.00
2019-06-26T17:29:11.761Z,3.33
2019-06-26T17:32:00.275Z,2.87
2019-06-26T17:34:29.489Z,3.07
2019-06-26T17:36:58.713Z,2.80
2019-06-26T17:39:28.268Z,3.37
2019-06-26T17:41:57.267Z,3.00
2019-06-26T17:44:26.287Z,3.60
2019-06-26T17:46:55.430Z,3.20
2019-06-26T17:49:43.678Z,3.30
2019-06-26T17:52:35.553Z,3.20
2019-06-26T17:55:03.247Z,3.13
2019-06-26T17:57:32.306Z,3.20
2019-06-26T18:00:01.008Z,2.97
2019-06-26T18:02:30.291Z,3.07
2019-06-26T18:04:59.601Z,2.67
2019-06-26T18:07:28.894Z,2.80
2019-06-26T18:10:09.447Z,3.30
2019-06-26T18:12:38.151Z,3.50
2019-06-26T18:15:26.133Z,3.20
2019-06-26T18:18:14.500Z,3.43
2019-06-26T18:20:43.724Z,2.93
2019-06-26T18:23:37.686Z,3.07
2019-06-26T18:26:21.678Z,3.00
2019-06-26T18:29:10.008Z,3.07
2019-06-26T18:31:57.964Z,2.97
2019-06-26T18:34:27.206Z,3.20
2019-06-26T18:37:15.750Z,3.00
2019-06-26T18:40:03.778Z,2.90
2019-06-26T18:42:32.583Z,3.17
2019-06-26T18:45:01.325Z,3.10
2019-06-26T18:47:49.948Z,3.10
2019-06-26T18:50:18.979Z,2.50
2019-06-26T18:53:07.283Z,3.17
2019-06-26T18:55:36.677Z,3.10
2019-06-26T18:58:05.664Z,3.00
2019-06-26T19:00:34.717Z,3.20
2019-06-26T19:03:04.047Z,3.37
2019-06-26T19:05:52.380Z,3.30
2019-06-26T19:08:40.652Z,2.60
2019-06-26T19:11:09.412Z,3.37
2019-06-26T19:13:57.459Z,3.10
2019-06-26T19:16:45.896Z,3.00
2019-06-26T19:19:33.849Z,3.10
2019-06-26T19:22:03.100Z,3.07
2019-06-26T19:24:53.119Z,3.37
2019-06-26T19:27:41.157Z,3.20
2019-06-26T19:30:29.458Z,2.93
2019-06-26T19:32:58.968Z,3.10
2019-06-26T19:35:47.253Z,3.30
2019-06-26T19:38:16.427Z,3.20
2019-06-26T19:40:45.183Z,3.20
2019-06-26T19:43:33.202Z,2.83
2019-06-26T19:46:01.925Z,3.17
2019-06-26T19:48:49.978Z,3.23
2019-06-26T19:51:19.442Z,3.43
2019-06-26T19:53:48.643Z,3.30
2019-06-26T19:56:20.092Z,2.70
2019-06-26T19:58:47.738Z,3.00
2019-06-26T20:01:16.524Z,2.77
2019-06-26T20:03:46.034Z,2.87
2019-06-26T20:06:14.872Z,3.00
2019-06-26T20:08:54.420Z,3.40
2019-06-26T20:11:26.343Z,3.20
2019-06-26T20:14:07.386Z,3.10
2019-06-26T20:16:36.020Z,3.63
2019-06-26T20:19:24.368Z,3.60
2019-06-26T20:21:53.858Z,2.97
2019-06-26T20:24:22.533Z,2.90
2019-06-26T20:26:51.259Z,2.87
2019-06-26T20:29:39.542Z,3.07
2019-06-26T20:32:08.290Z,3.03
2019-06-26T20:34:37.028Z,3.10
2019-06-26T20:37:06.039Z,2.90
2019-06-26T20:39:35.527Z,3.20
2019-06-26T20:42:04.233Z,3.33
2019-06-26T20:44:33.438Z,2.77
2019-06-26T20:47:02.187Z,2.83
2019-06-26T20:49:30.873Z,2.87
2019-06-26T20:51:59.515Z,3.20
2019-06-26T20:55:00.489Z,3.50
2019-06-26T20:57:19.509Z,3.33
2019-06-26T20:59:48.697Z,2.97
2019-06-26T21:02:17.660Z,2.87
2019-06-26T21:05:06.069Z,2.73
2019-06-26T21:07:54.715Z,2.87
2019-06-26T21:10:36.182Z,2.90
2019-06-26T21:13:05.207Z,3.10
2019-06-26T21:15:34.704Z,3.13
2019-06-26T21:18:22.987Z,3.13
2019-06-26T21:21:11.528Z,2.73
2019-06-26T21:23:40.775Z,3.03
2019-06-26T21:26:09.899Z,2.83
2019-06-26T21:28:39.086Z,3.20
2019-06-26T21:31:07.820Z,3.27
2019-06-26T21:33:36.865Z,2.80
2019-06-26T21:36:05.671Z,2.87
2019-06-26T21:38:34.435Z,2.80
2019-06-26T21:41:03.190Z,2.80
2019-06-26T21:43:32.179Z,3.40
2019-06-26T21:46:01.071Z,2.80
2019-06-26T21:48:30.192Z,3.90
2019-06-26T21:50:59.226Z,3.10
2019-06-26T21:53:28.049Z,2.37
2019-06-26T21:55:56.827Z,2.80
2019-06-26T21:58:25.642Z,2.20
2019-06-26T22:00:54.603Z,2.47
2019-06-26T22:03:23.424Z,2.63
2019-06-26T22:05:52.140Z,2.60
2019-06-26T22:08:20.965Z,2.33
2019-06-26T22:11:02.719Z,2.20
2019-06-26T22:13:31.655Z,2.43
2019-06-26T22:16:00.767Z,2.30
2019-06-26T22:18:29.746Z,2.50
2019-06-26T22:20:58.711Z,2.43
2019-06-26T22:23:27.474Z,2.20
2019-06-26T22:25:56.272Z,2.37
2019-06-26T22:28:25.043Z,1.87
2019-06-26T22:30:53.747Z,2.47
2019-06-26T22:33:22.519Z,2.67
2019-06-26T22:35:51.223Z,2.40
2019-06-26T22:38:20.076Z,2.10
2019-06-26T22:40:48.839Z,2.00
2019-06-26T22:43:36.870Z,2.13
2019-06-26T22:46:05.775Z,2.33
2019-06-26T22:48:34.801Z,2.30
2019-06-26T22:51:03.677Z,2.60
2019-06-26T22:53:32.919Z,2.40
2019-06-26T22:56:07.622Z,2.33
2019-06-26T22:58:51.815Z,2.10
2019-06-26T23:01:24.716Z,1.93
2019-06-26T23:07:04.923Z,2.37
2019-06-26T23:09:53.292Z,2.03
2019-06-26T23:12:41.780Z,2.00
2019-06-26T23:15:10.743Z,2.03
2019-06-26T23:17:39.976Z,2.10
2019-06-26T23:20:09.204Z,2.07
2019-06-26T23:22:57.819Z,2.73
2019-06-26T23:25:26.589Z,2.10
2019-06-26T23:27:55.340Z,2.73
2019-06-26T23:30:43.396Z,2.50
2019-06-26T23:33:31.417Z,2.30
2019-06-26T23:36:19.597Z,2.63
2019-06-26T23:38:48.348Z,2.50
2019-06-26T23:41:36.435Z,2.47
2019-06-26T23:44:24.580Z,3.00
2019-06-26T23:50:08.354Z,3.00
2019-06-26T23:52:56.521Z,2.30
2019-06-26T23:55:44.837Z,2.17
2019-06-26T23:58:13.666Z,2.90
